createdAt,value
2018-08-07T00:00:23.101Z,100418.59
2018-08-07T00:02:51.839Z,100413.56
2018-08-07T00:05:19.881Z,100413.91
2018-08-07T00:07:51.878Z,100407.38
2018-08-07T00:10:21.308Z,100406.08
2018-08-07T00:12:49.362Z,100408.88
2018-08-07T00:15:17.432Z,100407.09
2018-08-07T00:17:45.444Z,100403.36
2018-08-07T00:20:15.053Z,100398.06
2018-08-07T00:22:43.608Z,100397.38
2018-08-07T00:25:12.081Z,100398.51
2018-08-07T00:27:40.732Z,100391.61
2018-08-07T00:30:11.881Z,100390.42
2018-08-07T00:32:39.909Z,100390.03
2018-08-07T00:35:10.762Z,100379.67
2018-08-07T00:37:39.098Z,100382.56
2018-08-07T00:40:09.580Z,100378.37
2018-08-07T00:42:37.626Z,100378.90
2018-08-07T00:45:07.373Z,100375.09
2018-08-07T00:47:35.492Z,100378.77
2018-08-07T00:50:03.560Z,100377.05
2018-08-07T00:52:31.596Z,100371.99
2018-08-07T00:54:59.593Z,100369.36
2018-08-07T00:57:27.593Z,100369.67
2018-08-07T00:59:55.600Z,100365.52
2018-08-07T01:02:23.604Z,100361.85
2018-08-07T01:04:51.753Z,100363.92
2018-08-07T01:07:19.800Z,100359.94
2018-08-07T01:09:47.792Z,100360.09
2018-08-07T01:12:15.788Z,100353.53
2018-08-07T01:14:43.785Z,100353.00
2018-08-07T01:17:11.860Z,100351.82
2018-08-07T01:19:39.877Z,100354.63
2018-08-07T01:22:07.919Z,100344.01
2018-08-07T01:24:35.944Z,100342.77
2018-08-07T01:27:04.019Z,100345.30
2018-08-07T01:29:31.977Z,100336.20
2018-08-07T01:31:59.982Z,100331.17
2018-08-07T01:34:27.976Z,100337.89
2018-08-07T01:36:55.983Z,100327.97
2018-08-07T01:39:24.017Z,100335.88
2018-08-07T01:41:52.030Z,100333.20
2018-08-07T01:44:20.032Z,100326.37
2018-08-07T01:46:48.109Z,100332.44
2018-08-07T01:49:16.112Z,100328.81
2018-08-07T01:51:44.210Z,100327.01
2018-08-07T01:54:12.200Z,100331.39
2018-08-07T01:56:40.212Z,100333.77
2018-08-07T01:59:08.202Z,100334.12
2018-08-07T02:01:36.213Z,100332.78
2018-08-07T02:04:04.268Z,100328.75
2018-08-07T02:06:32.281Z,100326.10
2018-08-07T02:09:00.286Z,100331.85
2018-08-07T02:11:29.383Z,100327.50
2018-08-07T02:13:57.372Z,100326.48
2018-08-07T02:16:25.385Z,100328.49
2018-08-07T02:18:53.372Z,100321.62
2018-08-07T02:21:21.380Z,100325.98
2018-08-07T02:23:49.360Z,100326.84
2018-08-07T02:26:17.421Z,100323.84
2018-08-07T02:28:45.405Z,100324.52
2018-08-07T02:31:13.414Z,100320.82
2018-08-07T02:33:41.397Z,100318.80
2018-08-07T02:36:09.409Z,100315.46
2018-08-07T02:38:37.416Z,100308.74
2018-08-07T02:41:05.452Z,100306.05
2018-08-07T02:43:33.469Z,100304.02
2018-08-07T02:46:01.487Z,100300.34
2018-08-07T02:48:29.468Z,100301.67
2018-08-07T02:50:57.458Z,100297.33
2018-08-07T02:53:25.508Z,100295.66
2018-08-07T02:55:53.521Z,100296.66
2018-08-07T02:58:21.524Z,100293.63
2018-08-07T03:00:49.524Z,100290.27
2018-08-07T03:03:17.501Z,100294.80
2018-08-07T03:05:45.601Z,100292.75
2018-08-07T03:08:13.740Z,100291.75
2018-08-07T03:10:41.743Z,100291.59
2018-08-07T03:13:09.746Z,100286.41
2018-08-07T03:15:37.757Z,100291.41
2018-08-07T03:18:05.968Z,100288.23
2018-08-07T03:20:33.961Z,100284.37
2018-08-07T03:23:01.969Z,100284.53
2018-08-07T03:25:29.964Z,100287.20
2018-08-07T03:27:57.992Z,100278.49
2018-08-07T03:30:26.011Z,100279.80
2018-08-07T03:32:54.009Z,100280.41
2018-08-07T03:35:22.012Z,100277.56
2018-08-07T03:37:50.096Z,100283.59
2018-08-07T03:40:19.384Z,100288.77
2018-08-07T03:42:47.424Z,100288.11
2018-08-07T03:45:16.779Z,100294.13
2018-08-07T03:47:45.518Z,100293.77
2018-08-07T03:50:13.797Z,100294.10
2018-08-07T03:52:41.825Z,100293.92
2018-08-07T03:55:13.533Z,100296.07
2018-08-07T03:57:42.108Z,100291.73
2018-08-07T04:00:15.313Z,100297.59
2018-08-07T04:02:43.304Z,100290.36
2018-08-07T04:05:11.309Z,100287.71
2018-08-07T04:07:39.300Z,100285.73
2018-08-07T04:10:10.435Z,100291.09
2018-08-07T04:12:38.443Z,100291.31
2018-08-07T04:15:08.140Z,100290.30
2018-08-07T04:17:36.144Z,100291.14
2018-08-07T04:20:05.284Z,100287.80
2018-08-07T04:22:33.303Z,100292.25
2018-08-07T04:25:01.341Z,100294.75
2018-08-07T04:27:29.348Z,100295.60
2018-08-07T04:29:57.350Z,100291.25
2018-08-07T04:32:25.480Z,100289.92
2018-08-07T04:34:53.645Z,100288.59
2018-08-07T04:37:21.692Z,100286.91
2018-08-07T04:39:49.688Z,100289.27
2018-08-07T04:42:17.709Z,100292.13
2018-08-07T04:44:45.720Z,100288.25
2018-08-07T04:47:13.749Z,100286.74
2018-08-07T04:49:41.733Z,100286.25
2018-08-07T04:52:09.726Z,100292.48
2018-08-07T04:54:37.752Z,100288.89
2018-08-07T04:57:06.005Z,100290.89
2018-08-07T04:59:34.038Z,100294.72
2018-08-07T05:02:02.045Z,100292.67
2018-08-07T05:04:30.297Z,100295.83
2018-08-07T05:06:58.310Z,100293.98
2018-08-07T05:09:26.308Z,100290.14
2018-08-07T05:11:54.300Z,100291.44
2018-08-07T05:14:22.295Z,100291.54
2018-08-07T05:16:50.264Z,100293.95
2018-08-07T05:19:22.284Z,100300.17
2018-08-07T05:21:50.289Z,100301.03
2018-08-07T05:24:18.352Z,100295.33
2018-08-07T05:26:46.405Z,100303.63
2018-08-07T05:29:14.430Z,100301.62
2018-08-07T05:31:42.412Z,100305.78
2018-08-07T05:34:10.475Z,100307.05
2018-08-07T05:36:38.480Z,100321.16
2018-08-07T05:39:08.771Z,100317.80
2018-08-07T05:41:36.788Z,100315.95
2018-08-07T05:44:04.979Z,100318.17
2018-08-07T05:46:32.968Z,100313.50
2018-08-07T05:49:00.998Z,100324.54
2018-08-07T05:51:29.038Z,100329.98
2018-08-07T05:53:57.065Z,100330.77
2018-08-07T05:56:25.097Z,100327.02
2018-08-07T05:58:53.173Z,100332.55
2018-08-07T06:01:21.128Z,100331.65
2018-08-07T06:03:49.236Z,100325.02
2018-08-07T06:06:17.303Z,100333.80
2018-08-07T06:08:45.355Z,100330.03
2018-08-07T06:11:13.369Z,100331.63
2018-08-07T06:13:41.648Z,100340.16
2018-08-07T06:16:09.681Z,100333.29
2018-08-07T06:18:37.800Z,100333.47
2018-08-07T06:21:06.145Z,100331.89
2018-08-07T06:23:34.178Z,100337.33
2018-08-07T06:26:02.229Z,100338.38
2018-08-07T06:28:30.235Z,100340.55
2018-08-07T06:30:58.244Z,100334.64
2018-08-07T06:33:26.286Z,100342.20
2018-08-07T06:35:54.269Z,100344.38
2018-08-07T06:38:22.428Z,100342.48
2018-08-07T06:40:50.637Z,100345.30
2018-08-07T06:43:18.688Z,100338.69
2018-08-07T06:45:46.696Z,100334.73
2018-08-07T06:48:14.660Z,100336.82
2018-08-07T06:50:42.728Z,100337.67
2018-08-07T06:53:10.720Z,100332.57
2018-08-07T06:55:38.807Z,100333.59
2018-08-07T06:58:06.905Z,100331.09
2018-08-07T07:00:35.210Z,100332.26
2018-08-07T07:03:03.211Z,100339.41
2018-08-07T07:05:31.286Z,100334.91
2018-08-07T07:08:00.093Z,100338.74
2018-08-07T07:10:28.537Z,100338.74
2018-08-07T07:12:56.652Z,100331.46
2018-08-07T07:15:24.641Z,100333.99
2018-08-07T07:17:52.608Z,100328.96
2018-08-07T07:20:20.708Z,100326.98
2018-08-07T07:22:49.249Z,100327.28
2018-08-07T07:25:17.325Z,100326.73
2018-08-07T07:27:45.376Z,100332.05
2018-08-07T07:30:17.504Z,100324.70
2018-08-07T07:32:47.007Z,100320.36
2018-08-07T07:35:15.811Z,100321.84
2018-08-07T07:37:44.290Z,100332.95
2018-08-07T07:40:12.400Z,100322.26
2018-08-07T07:42:40.441Z,100324.34
2018-08-07T07:45:11.345Z,100314.69
2018-08-07T07:47:40.126Z,100309.97
2018-08-07T07:50:11.795Z,100308.22
2018-08-07T07:52:40.218Z,100302.14
2018-08-07T07:55:09.396Z,100300.70
2018-08-07T07:57:37.973Z,100311.05
2018-08-07T08:00:08.230Z,100305.83
2018-08-07T08:02:36.205Z,100305.09
2018-08-07T08:05:04.978Z,100302.64
2018-08-07T08:07:33.145Z,100306.55
2018-08-07T08:10:01.182Z,100304.58
2018-08-07T08:12:29.352Z,100300.03
2018-08-07T08:14:57.404Z,100304.32
2018-08-07T08:17:25.656Z,100299.67
2018-08-07T08:19:53.773Z,100298.81
2018-08-07T08:22:21.787Z,100292.70
2018-08-07T08:24:49.888Z,100294.89
2018-08-07T08:27:17.879Z,100291.95
2018-08-07T08:29:45.994Z,100295.61
2018-08-07T08:32:14.151Z,100292.49
2018-08-07T08:34:42.240Z,100288.90
2018-08-07T08:37:10.233Z,100288.75
2018-08-07T08:39:38.244Z,100285.73
2018-08-07T08:42:06.260Z,100285.08
2018-08-07T08:44:34.229Z,100289.85
2018-08-07T08:47:02.237Z,100292.70
2018-08-07T08:49:30.244Z,100295.97
2018-08-07T08:51:58.331Z,100284.96
2018-08-07T08:54:26.364Z,100292.42
2018-08-07T08:56:54.372Z,100289.44
2018-08-07T08:59:22.356Z,100289.59
2018-08-07T09:01:50.361Z,100286.48
2018-08-07T09:04:18.348Z,100284.27
2018-08-07T09:06:46.324Z,100284.84
2018-08-07T09:09:14.595Z,100276.12
2018-08-07T09:11:42.607Z,100279.88
2018-08-07T09:14:11.081Z,100277.92
2018-08-07T09:16:39.644Z,100275.31
2018-08-07T09:19:08.046Z,100273.23
2018-08-07T09:21:36.732Z,100273.91
2018-08-07T09:24:04.709Z,100273.15
2018-08-07T09:26:32.702Z,100267.21
2018-08-07T09:29:00.869Z,100261.74
2018-08-07T09:31:28.956Z,100257.30
2018-08-07T09:33:57.089Z,100254.84
2018-08-07T09:36:25.345Z,100242.61
2018-08-07T09:38:53.330Z,100238.91
2018-08-07T09:41:21.475Z,100237.78
2018-08-07T09:43:49.458Z,100236.52
2018-08-07T09:46:17.545Z,100232.42
2018-08-07T09:48:45.561Z,100225.11
2018-08-07T09:51:13.656Z,100220.02
2018-08-07T09:53:41.693Z,100221.30
2018-08-07T09:56:09.697Z,100224.11
2018-08-07T09:58:37.796Z,100222.31
2018-08-07T10:01:11.190Z,100216.24
2018-08-07T10:03:39.201Z,100218.23
2018-08-07T10:06:07.744Z,100223.05
2018-08-07T10:08:35.776Z,100218.31
2018-08-07T10:11:03.783Z,100217.33
2018-08-07T10:13:31.785Z,100214.30
2018-08-07T10:15:59.858Z,100206.87
2018-08-07T10:18:27.922Z,100209.46
2018-08-07T10:20:55.912Z,100208.17
2018-08-07T10:23:23.985Z,100206.69
2018-08-07T10:25:51.937Z,100197.02
2018-08-07T10:28:19.940Z,100194.86
2018-08-07T10:30:47.918Z,100189.81
2018-08-07T10:33:15.947Z,100188.63
2018-08-07T10:35:43.968Z,100192.63
2018-08-07T10:38:11.961Z,100185.48
2018-08-07T10:40:39.987Z,100187.80
2018-08-07T10:43:08.185Z,100181.69
2018-08-07T10:45:36.140Z,100177.78
2018-08-07T10:48:04.292Z,100172.16
2018-08-07T10:50:32.368Z,100174.27
2018-08-07T10:53:00.460Z,100168.22
2018-08-07T10:55:28.499Z,100163.67
2018-08-07T10:57:58.720Z,100166.12
2018-08-07T11:00:28.792Z,100161.16
2018-08-07T11:02:57.268Z,100151.58
2018-08-07T11:05:25.972Z,100154.06
2018-08-07T11:07:54.000Z,100153.17
2018-08-07T11:10:22.332Z,100143.67
2018-08-07T11:12:50.368Z,100141.23
2018-08-07T11:15:23.948Z,100143.69
2018-08-07T11:17:52.772Z,100137.94
2018-08-07T11:20:20.860Z,100141.41
2018-08-07T11:22:49.983Z,100140.23
2018-08-07T11:25:19.256Z,100134.04
2018-08-07T11:27:47.242Z,100130.96
2018-08-07T11:30:17.428Z,100129.36
2018-08-07T11:32:45.879Z,100121.43
2018-08-07T11:35:14.233Z,100136.27
2018-08-07T11:37:43.416Z,100123.16
2018-08-07T11:40:13.789Z,100125.22
2018-08-07T11:42:41.870Z,100111.30
2018-08-07T11:45:11.992Z,100111.23
2018-08-07T11:47:40.041Z,100118.42
2018-08-07T11:50:11.717Z,100114.53
2018-08-07T11:52:39.853Z,100113.71
2018-08-07T11:55:08.624Z,100112.99
2018-08-07T11:57:36.957Z,100108.30
2018-08-07T12:00:10.573Z,100104.27
2018-08-07T12:02:38.563Z,100100.47
2018-08-07T12:05:07.151Z,100090.77
2018-08-07T12:07:35.548Z,100087.39
2018-08-07T12:10:03.624Z,100085.81
2018-08-07T12:12:31.969Z,100081.27
2018-08-07T12:14:59.965Z,100087.95
2018-08-07T12:17:27.958Z,100094.70
2018-08-07T12:19:56.274Z,100093.30
2018-08-07T12:22:24.256Z,100085.31
2018-08-07T12:24:52.232Z,100077.17
2018-08-07T12:27:20.380Z,100069.44
2018-08-07T12:29:48.380Z,100074.00
2018-08-07T12:32:16.380Z,100077.23
2018-08-07T12:34:44.475Z,100065.45
2018-08-07T12:37:12.532Z,100068.91
2018-08-07T12:39:40.520Z,100067.56
2018-08-07T12:42:08.495Z,100068.30
2018-08-07T12:44:36.521Z,100066.10
2018-08-07T12:47:04.517Z,100063.02
2018-08-07T12:49:32.513Z,100055.06
2018-08-07T12:52:00.545Z,100060.27
2018-08-07T12:54:28.645Z,100047.42
2018-08-07T12:56:56.656Z,100059.30
2018-08-07T12:59:24.780Z,100040.47
2018-08-07T13:01:53.057Z,100048.48
2018-08-07T13:04:21.237Z,100058.55
2018-08-07T13:06:49.456Z,100043.55
2018-08-07T13:09:17.416Z,100041.35
2018-08-07T13:11:45.428Z,100035.04
2018-08-07T13:14:13.433Z,100039.70
2018-08-07T13:16:41.472Z,100044.41
2018-08-07T13:19:09.541Z,100043.42
2018-08-07T13:21:37.518Z,100036.29
2018-08-07T13:24:05.604Z,100040.34
2018-08-07T13:26:33.760Z,100039.28
2018-08-07T13:29:01.777Z,100041.83
2018-08-07T13:31:29.902Z,100032.59
2018-08-07T13:33:57.986Z,100020.59
2018-08-07T13:36:26.020Z,100026.43
2018-08-07T13:38:54.096Z,100032.66
2018-08-07T13:41:22.076Z,100029.25
2018-08-07T13:43:50.069Z,100023.84
2018-08-07T13:46:18.070Z,100028.63
2018-08-07T13:48:46.090Z,100031.09
2018-08-07T13:51:14.076Z,100025.11
2018-08-07T13:53:42.054Z,100030.55
2018-08-07T13:56:10.053Z,100025.27
2018-08-07T13:58:38.032Z,100020.88
2018-08-07T14:01:06.396Z,100024.30
2018-08-07T14:03:34.446Z,100020.86
2018-08-07T14:06:02.397Z,100021.47
2018-08-07T14:08:30.376Z,100020.76
2018-08-07T14:10:58.404Z,100015.20
2018-08-07T14:13:26.462Z,100013.91
2018-08-07T14:15:54.513Z,100009.66
2018-08-07T14:18:22.515Z,100009.28
2018-08-07T14:20:50.521Z,100003.29
2018-08-07T14:23:18.535Z,100001.55
2018-08-07T14:25:46.564Z,100003.18
2018-08-07T14:28:14.576Z,100001.17
2018-08-07T14:30:42.560Z,99997.67
2018-08-07T14:33:10.552Z,99994.08
2018-08-07T14:35:38.556Z,99987.50
2018-08-07T14:38:06.576Z,99987.92
2018-08-07T14:40:34.573Z,99984.59
2018-08-07T14:43:02.600Z,99981.55
2018-08-07T14:45:30.654Z,99984.78
2018-08-07T14:47:59.132Z,99981.16
2018-08-07T14:50:28.723Z,99986.00
2018-08-07T14:52:56.773Z,99985.80
2018-08-07T14:55:25.025Z,99978.75
2018-08-07T14:57:53.498Z,99977.23
2018-08-07T15:00:23.204Z,99969.45
2018-08-07T15:02:51.248Z,99968.17
2018-08-07T15:05:19.244Z,99956.09
2018-08-07T15:07:47.497Z,99962.23
2018-08-07T15:10:21.096Z,99960.53
2018-08-07T15:12:49.172Z,99950.22
2018-08-07T15:15:18.680Z,99948.86
2018-08-07T15:17:46.729Z,99950.10
2018-08-07T15:20:16.476Z,99942.87
2018-08-07T15:22:45.964Z,99942.11
2018-08-07T15:25:15.088Z,99934.03
2018-08-07T15:27:43.158Z,99940.20
2018-08-07T15:30:15.008Z,99929.93
2018-08-07T15:32:43.240Z,99939.33
2018-08-07T15:35:11.282Z,99938.59
2018-08-07T15:37:39.292Z,99935.41
2018-08-07T15:40:07.965Z,99930.95
2018-08-07T15:42:35.972Z,99926.08
2018-08-07T15:45:04.668Z,99929.67
2018-08-07T15:47:32.733Z,99934.50
2018-08-07T15:50:00.923Z,99935.05
2018-08-07T15:52:28.980Z,99934.28
2018-08-07T15:54:57.202Z,99931.30
2018-08-07T15:57:25.172Z,99924.71
2018-08-07T15:59:53.340Z,99921.33
2018-08-07T16:02:21.367Z,99917.25
2018-08-07T16:04:49.345Z,99908.02
2018-08-07T16:07:17.317Z,99914.09
2018-08-07T16:09:45.306Z,99915.03
2018-08-07T16:12:13.277Z,99916.06
2018-08-07T16:14:41.321Z,99915.45
2018-08-07T16:17:09.313Z,99916.00
2018-08-07T16:19:37.336Z,99908.08
2018-08-07T16:22:05.476Z,99906.94
2018-08-07T16:24:33.389Z,99903.66
2018-08-07T16:27:27.153Z,99904.86
2018-08-07T16:29:55.401Z,99902.16
2018-08-07T16:32:23.312Z,99901.17
2018-08-07T16:34:51.392Z,99902.03
2018-08-07T16:37:19.384Z,99898.99
2018-08-07T16:39:47.408Z,99900.31
2018-08-07T16:42:15.634Z,99905.11
2018-08-07T16:44:43.664Z,99907.81
2018-08-07T16:47:11.652Z,99896.44
2018-08-07T16:49:39.646Z,99897.40
2018-08-07T16:52:07.742Z,99893.62
2018-08-07T16:54:35.800Z,99890.33
2018-08-07T16:57:04.940Z,99888.38
2018-08-07T16:59:32.948Z,99888.03
2018-08-07T17:02:00.964Z,99889.30
2018-08-07T17:04:28.959Z,99880.58
2018-08-07T17:06:57.044Z,99879.31
2018-08-07T17:09:25.109Z,99882.62
2018-08-07T17:11:53.187Z,99874.72
2018-08-07T17:14:21.242Z,99877.78
2018-08-07T17:16:49.341Z,99877.14
2018-08-07T17:19:17.372Z,99885.80
2018-08-07T17:21:45.393Z,99876.58
2018-08-07T17:24:13.422Z,99877.61
2018-08-07T17:26:41.497Z,99871.63
2018-08-07T17:29:09.488Z,99875.42
2018-08-07T17:31:37.517Z,99874.66
2018-08-07T17:34:05.888Z,99875.30
2018-08-07T17:36:33.880Z,99869.80
2018-08-07T17:39:01.900Z,99872.19
2018-08-07T17:41:29.982Z,99871.02
2018-08-07T17:43:58.013Z,99870.48
2018-08-07T17:46:26.081Z,99868.30
2018-08-07T17:48:54.255Z,99873.13
2018-08-07T17:51:22.364Z,99870.27
2018-08-07T17:53:50.516Z,99873.16
2018-08-07T17:56:18.669Z,99870.66
2018-08-07T17:58:47.941Z,99872.84
2018-08-07T18:01:16.100Z,99873.73
2018-08-07T18:03:44.107Z,99866.73
2018-08-07T18:06:12.338Z,99877.64
2018-08-07T18:08:40.594Z,99880.18
2018-08-07T18:11:09.439Z,99873.01
2018-08-07T18:13:37.692Z,99873.22
2018-08-07T18:16:06.263Z,99876.45
2018-08-07T18:18:34.292Z,99881.09
2018-08-07T18:21:02.280Z,99879.27
2018-08-07T18:23:30.348Z,99877.47
2018-08-07T18:25:58.465Z,99873.97
2018-08-07T18:28:26.449Z,99871.60
2018-08-07T18:30:54.437Z,99886.87
2018-08-07T18:33:22.420Z,99884.72
2018-08-07T18:35:50.421Z,99882.02
2018-08-07T18:38:18.501Z,99885.14
2018-08-07T18:40:46.498Z,99878.87
2018-08-07T18:43:14.532Z,99884.24
2018-08-07T18:45:42.504Z,99882.95
2018-08-07T18:48:10.496Z,99883.58
2018-08-07T18:50:38.840Z,99881.71
2018-08-07T18:53:06.845Z,99883.70
2018-08-07T18:55:34.917Z,99883.75
2018-08-07T18:58:02.929Z,99877.75
2018-08-07T19:00:30.936Z,99878.09
2018-08-07T19:02:59.005Z,99872.58
2018-08-07T19:05:27.013Z,99881.68
2018-08-07T19:07:55.033Z,99883.02
2018-08-07T19:10:23.160Z,99877.79
2018-08-07T19:12:51.178Z,99874.73
2018-08-07T19:15:20.208Z,99878.00
2018-08-07T19:17:48.294Z,99876.73
2018-08-07T19:20:18.525Z,99876.63
2018-08-07T19:22:46.792Z,99875.44
2018-08-07T19:25:14.924Z,99876.19
2018-08-07T19:27:43.422Z,99875.82
2018-08-07T19:30:13.384Z,99880.81
2018-08-07T19:32:41.440Z,99877.97
2018-08-07T19:35:10.556Z,99880.30
2018-08-07T19:37:38.597Z,99874.36
2018-08-07T19:40:08.538Z,99870.52
2018-08-07T19:42:37.122Z,99873.91
2018-08-07T19:45:07.229Z,99880.77
2018-08-07T19:47:35.229Z,99877.52
2018-08-07T19:50:03.353Z,99877.38
2018-08-07T19:52:31.346Z,99872.50
2018-08-07T19:54:59.372Z,99870.44
2018-08-07T19:57:27.414Z,99871.00
2018-08-07T19:59:55.468Z,99871.97
2018-08-07T20:02:23.522Z,99872.76
2018-08-07T20:04:51.722Z,99867.95
2018-08-07T20:07:19.788Z,99870.59
2018-08-07T20:09:48.005Z,99864.80
2018-08-07T20:12:15.988Z,99864.75
2018-08-07T20:14:44.147Z,99867.16
2018-08-07T20:17:12.582Z,99863.66
2018-08-07T20:19:40.633Z,99858.58
2018-08-07T20:22:12.544Z,99859.30
2018-08-07T20:24:40.545Z,99857.30
2018-08-07T20:27:08.536Z,99844.98
2018-08-07T20:29:36.750Z,99833.84
2018-08-07T20:32:04.804Z,99834.02
2018-08-07T20:34:32.849Z,99832.11
2018-08-07T20:37:01.056Z,99828.80
2018-08-07T20:39:29.374Z,99831.89
2018-08-07T20:41:57.380Z,99830.97
2018-08-07T20:44:25.420Z,99833.03
2018-08-07T20:46:53.441Z,99825.25
2018-08-07T20:49:21.541Z,99827.43
2018-08-07T20:51:49.807Z,99825.50
2018-08-07T20:54:17.856Z,99825.29
2018-08-07T20:56:45.888Z,99827.14
2018-08-07T20:59:13.964Z,99832.02
2018-08-07T21:01:42.038Z,99830.40
2018-08-07T21:04:10.137Z,99826.73
2018-08-07T21:06:38.153Z,99838.77
2018-08-07T21:09:07.657Z,99840.45
2018-08-07T21:11:35.678Z,99855.28
2018-08-07T21:14:03.693Z,99854.00
2018-08-07T21:16:31.781Z,99859.00
2018-08-07T21:18:59.847Z,99859.14
2018-08-07T21:21:28.045Z,99857.79
2018-08-07T21:23:56.032Z,99852.36
2018-08-07T21:26:24.057Z,99843.39
2018-08-07T21:28:52.204Z,99839.92
2018-08-07T21:31:20.351Z,99843.44
2018-08-07T21:33:48.390Z,99841.79
2018-08-07T21:36:16.413Z,99835.61
2018-08-07T21:38:44.500Z,99829.78
2018-08-07T21:41:12.572Z,99836.57
2018-08-07T21:43:40.615Z,99835.14
2018-08-07T21:46:08.652Z,99829.88
2018-08-07T21:48:36.644Z,99825.88
2018-08-07T21:51:04.639Z,99832.46
2018-08-07T21:53:32.695Z,99829.42
2018-08-07T21:56:00.715Z,99836.75
2018-08-07T21:58:28.689Z,99831.85
2018-08-07T22:00:56.831Z,99830.03
2018-08-07T22:03:24.827Z,99827.63
2018-08-07T22:05:52.812Z,99822.06
2018-08-07T22:08:20.832Z,99819.94
2018-08-07T22:10:48.857Z,99812.42
2018-08-07T22:13:16.851Z,99819.42
2018-08-07T22:15:44.856Z,99804.75
2018-08-07T22:18:12.978Z,99809.34
2018-08-07T22:20:40.970Z,99809.45
2018-08-07T22:23:08.969Z,99808.55
2018-08-07T22:25:37.121Z,99805.97
2018-08-07T22:28:05.455Z,99806.09
2018-08-07T22:30:33.442Z,99800.97
2018-08-07T22:33:01.508Z,99798.67
2018-08-07T22:35:29.548Z,99793.61
2018-08-07T22:37:57.539Z,99793.33
2018-08-07T22:40:25.576Z,99790.58
2018-08-07T22:42:53.564Z,99786.89
2018-08-07T22:45:21.601Z,99781.39
2018-08-07T22:47:49.620Z,99781.27
2018-08-07T22:50:18.756Z,99778.80
2018-08-07T22:52:46.776Z,99776.45
2018-08-07T22:55:16.245Z,99770.67
2018-08-07T22:57:44.289Z,99775.11
2018-08-07T23:00:17.178Z,99779.83
2018-08-07T23:02:45.077Z,99779.05
2018-08-07T23:05:13.957Z,99771.40
2018-08-07T23:07:42.224Z,99767.25
2018-08-07T23:10:21.399Z,99767.75
2018-08-07T23:12:49.448Z,99767.02
2018-08-07T23:15:18.860Z,99773.26
2018-08-07T23:17:46.880Z,99775.38
2018-08-07T23:20:16.298Z,99770.59
2018-08-07T23:22:44.304Z,99768.54
2018-08-07T23:25:12.649Z,99761.28
2018-08-07T23:27:40.665Z,99757.67
2018-08-07T23:30:11.033Z,99752.91
2018-08-07T23:32:39.109Z,99750.35
2018-08-07T23:35:07.164Z,99749.78
2018-08-07T23:37:35.376Z,99746.44
2018-08-07T23:40:03.729Z,99744.07
2018-08-07T23:42:31.803Z,99741.13
2018-08-07T23:45:00.050Z,99734.09
2018-08-07T23:47:28.063Z,99730.89
2018-08-07T23:49:56.055Z,99738.07
2018-08-07T23:52:24.277Z,99741.86
2018-08-07T23:54:52.289Z,99740.72
2018-08-07T23:57:20.305Z,99738.45
2018-08-07T23:59:48.332Z,99741.71
